Time;durP1;ratioP1;P1;durP2;ratioP2;P2;SDS_P1;SDS_P2;PMS_P1;PMS_P2;Temp;Humidity;BMP_temperature;BMP_pressure;BME280_temperature;BME280_humidity;BME280_pressure;Samples;Min_cycle;Max_cycle;Signal;HPM_P1;HPM_P2
2021/08/25 00:00:43;;;;;;;7.55;3.98;;;;;;;10.74;70.35;102113.19;1729842;83;22440;-90
2021/08/25 00:03:10;;;;;;;6.40;4.42;;;;;;;10.70;70.44;102105.98;1699638;82;20971;-91
2021/08/25 00:05:37;;;;;;;7.22;4.08;;;;;;;10.67;70.56;102103.19;1729757;83;21434;-91
2021/08/25 00:08:04;;;;;;;10.93;5.33;;;;;;;10.62;70.63;102096.41;1699659;84;20998;-91
2021/08/25 00:10:32;;;;;;;6.70;4.25;;;;;;;10.60;70.75;102093.20;1729452;81;21891;-90
2021/08/25 00:13:02;;;;;;;6.85;4.62;;;;;;;10.56;70.88;102087.31;1733454;80;21051;-91
2021/08/25 00:15:32;;;;;;;9.58;5.05;;;;;;;10.54;71.01;102092.92;1731393;80;21475;-91
2021/08/25 00:17:58;;;;;;;7.20;4.80;;;;;;;10.51;71.08;102084.48;1701958;82;21202;-91
2021/08/25 00:20:25;;;;;;;8.35;5.12;;;;;;;10.50;71.23;102084.88;1731056;80;20993;-91
2021/08/25 00:22:52;;;;;;;9.95;4.35;;;;;;;10.46;71.24;102080.72;1699294;84;22495;-91
2021/08/25 00:25:19;;;;;;;8.40;4.97;;;;;;;10.44;71.39;102074.48;1699194;84;21465;-91
2021/08/25 00:27:51;;;;;;;8.95;5.17;;;;;;;10.42;71.50;102072.20;1731512;80;20945;-92
2021/08/25 00:30:18;;;;;;;8.68;4.40;;;;;;;10.40;71.65;102065.94;1701248;84;21026;-90
2021/08/25 00:32:48;;;;;;;8.60;4.25;;;;;;;10.39;71.78;102064.15;1730811;80;20992;-91
2021/08/25 00:35:15;;;;;;;10.05;5.10;;;;;;;10.38;71.88;102063.26;1729567;83;21795;-90
2021/08/25 00:37:45;;;;;;;9.33;4.92;;;;;;;10.36;71.93;102063.61;1699321;82;20979;-92
2021/08/25 00:40:12;;;;;;;7.35;4.35;;;;;;;10.34;72.03;102053.81;1696886;83;20960;-93
2021/08/25 00:42:41;;;;;;;9.38;4.45;;;;;;;10.31;72.16;102058.11;1699164;82;21017;-93
2021/08/25 00:45:13;;;;;;;10.25;4.60;;;;;;;10.29;72.31;102055.78;1729353;81;21005;-91
2021/08/25 00:47:40;;;;;;;9.40;4.42;;;;;;;10.29;72.38;102054.47;1718535;83;21776;-91
2021/08/25 00:50:11;;;;;;;9.53;4.90;;;;;;;10.27;72.51;102048.66;1698517;84;20987;-92
2021/08/25 00:52:44;;;;;;;6.95;4.03;;;;;;;10.25;72.54;102048.58;1696869;81;20976;-92
2021/08/25 00:55:15;;;;;;;9.93;4.42;;;;;;;10.24;72.62;102042.81;1665757;84;21466;-93
2021/08/25 00:57:53;;;;;;;6.90;4.35;;;;;;;10.23;72.66;102048.00;1699308;81;21019;-92
2021/08/25 01:00:14;;;;;;;6.15;4.20;;;;;;;10.20;72.70;102042.20;1695896;83;22574;-92
2021/08/25 01:02:57;;;;;;;10.00;4.60;;;;;;;10.20;72.83;102039.98;1698943;82;21433;-91
2021/08/25 01:05:25;;;;;;;6.83;4.12;;;;;;;10.19;72.90;102031.59;1728165;82;20997;-91
2021/08/25 01:07:53;;;;;;;6.05;3.92;;;;;;;10.20;73.04;102022.88;1698994;82;21049;-92
2021/08/25 01:10:32;;;;;;;8.60;4.45;;;;;;;10.18;73.06;102026.75;1728692;83;20961;-91
2021/08/25 01:13:00;;;;;;;7.78;3.77;;;;;;;10.18;73.10;102024.55;1699408;84;21750;-91
2021/08/25 01:15:35;;;;;;;6.00;3.70;;;;;;;10.15;73.15;102021.33;1729442;81;20957;-92
2021/08/25 01:18:04;;;;;;;6.03;3.72;;;;;;;10.15;73.17;102016.49;1699209;82;21011;-91
2021/08/25 01:20:42;;;;;;;11.00;3.90;;;;;;;10.15;73.28;102016.49;1668048;84;21939;-92
2021/08/25 01:23:13;;;;;;;6.20;3.50;;;;;;;10.14;73.33;102013.39;1668424;84;21081;-93
2021/08/25 01:25:40;;;;;;;9.20;3.67;;;;;;;10.15;73.43;102008.17;1699232;84;22570;-91
2021/08/25 01:28:12;;;;;;;6.53;3.83;;;;;;;10.13;73.51;102000.63;1729142;83;20968;-92
2021/08/25 01:30:39;;;;;;;5.72;3.65;;;;;;;10.15;73.55;101992.81;1728776;81;20988;-92
2021/08/25 01:33:05;;;;;;;5.72;3.37;;;;;;;10.16;73.60;101993.31;1667740;84;21043;-92
2021/08/25 01:35:39;;;;;;;4.50;3.55;;;;;;;10.17;73.63;101989.41;1699585;84;21051;-91
2021/08/25 01:38:06;;;;;;;5.37;3.62;;;;;;;10.17;73.62;101987.20;1729714;82;21783;-91
2021/08/25 01:40:36;;;;;;;6.70;3.67;;;;;;;10.17;73.68;101989.41;1699386;84;20979;-91
2021/08/25 01:43:05;;;;;;;8.33;4.40;;;;;;;10.17;73.67;101985.47;1729687;82;20977;-92
2021/08/25 01:45:35;;;;;;;6.33;3.67;;;;;;;10.17;73.71;101985.47;1699412;82;21031;-91
2021/08/25 01:48:03;;;;;;;8.13;3.55;;;;;;;10.15;73.75;101977.03;1729345;83;21455;-91
2021/08/25 01:50:30;;;;;;;8.45;4.08;;;;;;;10.17;73.76;101980.62;1699450;82;21729;-91
2021/08/25 01:52:58;;;;;;;5.62;3.33;;;;;;;10.16;73.73;101976.21;1729449;81;21406;-91
2021/08/25 01:55:25;;;;;;;7.20;3.90;;;;;;;10.15;73.74;101969.13;1699554;82;20995;-91
2021/08/25 01:57:52;;;;;;;6.40;4.00;;;;;;;10.15;73.77;101964.77;1699470;84;20971;-91
2021/08/25 02:00:18;;;;;;;7.15;4.08;;;;;;;10.15;73.82;101962.55;1667385;84;20971;-91
2021/08/25 02:02:49;;;;;;;4.55;3.20;;;;;;;10.14;73.85;101961.66;1729714;81;21753;-92
2021/08/25 02:05:17;;;;;;;5.78;3.45;;;;;;;10.14;73.85;101962.98;1718943;82;20984;-91
2021/08/25 02:07:42;;;;;;;7.70;3.50;;;;;;;10.14;73.91;101956.41;1699218;83;20983;-91
2021/08/25 02:10:12;;;;;;;8.33;4.47;;;;;;;10.14;73.89;101960.35;1729639;81;21431;-91
2021/08/25 02:12:40;;;;;;;7.45;4.30;;;;;;;10.14;73.92;101960.35;1722982;80;21403;-90
2021/08/25 02:15:08;;;;;;;8.98;5.17;;;;;;;10.15;73.96;101955.55;1699337;82;21795;-91
2021/08/25 02:17:35;;;;;;;5.62;3.62;;;;;;;10.16;73.94;101948.59;1728946;81;21477;-90
2021/08/25 02:20:04;;;;;;;5.92;3.80;;;;;;;10.16;73.95;101948.16;1699173;82;20951;-89
2021/08/25 02:22:30;;;;;;;5.90;3.45;;;;;;;10.16;73.90;101940.69;1697393;83;21422;-91
2021/08/25 02:24:57;;;;;;;5.40;3.62;;;;;;;10.16;73.89;101934.11;1697013;83;21434;-91
2021/08/25 02:27:28;;;;;;;5.87;3.37;;;;;;;10.15;73.96;101933.61;1696860;84;21019;-91
2021/08/25 02:30:00;;;;;;;5.53;3.52;;;;;;;10.14;73.96;101931.41;1725505;80;21019;-91
2021/08/25 02:32:26;;;;;;;8.18;3.83;;;;;;;10.11;73.95;101926.89;1699099;82;21034;-92
2021/08/25 02:34:53;;;;;;;6.10;3.70;;;;;;;10.12;73.94;101930.44;1729641;83;20992;-92
2021/08/25 02:37:20;;;;;;;8.70;4.70;;;;;;;10.10;73.98;101924.21;1699426;82;21456;-90
2021/08/25 02:39:49;;;;;;;10.25;5.62;;;;;;;10.09;73.97;101923.28;1729522;83;21797;-90
2021/08/25 02:42:16;;;;;;;16.80;13.50;;;;;;;10.07;73.97;101920.11;1699718;84;21018;-90
2021/08/25 02:44:43;;;;;;;13.28;7.55;;;;;;;10.06;74.03;101915.66;1729709;83;20957;-89
2021/08/25 02:47:11;;;;;;;6.75;4.62;;;;;;;10.04;74.04;101912.99;1729977;82;20992;-92
2021/08/25 02:49:38;;;;;;;6.83;4.03;;;;;;;10.03;74.10;101908.97;1730017;83;21015;-91
2021/08/25 02:52:06;;;;;;;7.15;4.03;;;;;;;10.00;74.13;101899.19;1699641;84;21835;-91
2021/08/25 02:54:32;;;;;;;6.78;3.80;;;;;;;10.01;74.19;101896.17;1729686;81;20992;-91
2021/08/25 02:56:59;;;;;;;14.87;4.65;;;;;;;9.99;74.21;101892.57;1699629;84;20979;-91
2021/08/25 02:59:29;;;;;;;7.70;4.25;;;;;;;9.97;74.20;101895.55;1729005;81;21300;-92
2021/08/25 03:01:56;;;;;;;9.33;4.20;;;;;;;9.96;74.27;101885.42;1698899;84;21042;-91
2021/08/25 03:04:23;;;;;;;5.58;4.08;;;;;;;9.95;74.30;101885.34;1699650;84;22723;-90
2021/08/25 03:06:50;;;;;;;6.75;3.37;;;;;;;9.95;74.34;101883.64;1729640;83;20997;-91
2021/08/25 03:09:25;;;;;;;8.78;4.47;;;;;;;9.94;74.39;101887.08;1695938;83;20949;-91
2021/08/25 03:11:48;;;;;;;6.42;4.03;;;;;;;9.92;74.41;101887.00;1697371;84;21436;-91
2021/08/25 03:14:18;;;;;;;7.37;3.33;;;;;;;9.91;74.49;101877.34;1729866;81;20992;-91
2021/08/25 03:16:46;;;;;;;6.55;3.80;;;;;;;9.94;74.55;101879.19;1667853;84;21440;-91
2021/08/25 03:19:13;;;;;;;6.10;3.37;;;;;;;9.93;74.56;101870.41;1699578;83;21018;-90
2021/08/25 03:21:41;;;;;;;4.87;3.37;;;;;;;9.94;74.60;101867.36;1729711;81;20937;-90
2021/08/25 03:24:12;;;;;;;5.40;3.15;;;;;;;9.93;74.58;101861.20;1729680;82;21004;-90
2021/08/25 03:26:39;;;;;;;7.58;3.83;;;;;;;9.94;74.57;101855.52;1699615;84;21112;-90
2021/08/25 03:29:09;;;;;;;6.92;3.67;;;;;;;9.94;74.57;101855.52;1729715;83;21786;-90
2021/08/25 03:31:34;;;;;;;5.08;3.15;;;;;;;9.93;74.55;101849.80;1729123;82;21439;-90
2021/08/25 03:34:01;;;;;;;6.20;3.00;;;;;;;9.91;74.55;101847.09;1699628;82;21015;-90
2021/08/25 03:36:28;;;;;;;7.03;4.03;;;;;;;9.93;74.54;101853.73;1699908;82;21019;-91
2021/08/25 03:38:55;;;;;;;6.35;4.00;;;;;;;9.92;74.57;101842.30;1729735;81;20965;-91
2021/08/25 03:41:26;;;;;;;5.90;3.65;;;;;;;9.94;74.57;101842.37;1729410;82;22038;-91
2021/08/25 03:43:54;;;;;;;6.53;3.75;;;;;;;9.96;74.61;101844.66;1699044;82;21519;-91
2021/08/25 03:46:21;;;;;;;6.53;3.25;;;;;;;9.99;74.62;101843.91;1699533;82;21422;-91
2021/08/25 03:48:47;;;;;;;6.58;3.25;;;;;;;10.01;74.65;101839.61;1729661;81;21173;-90
2021/08/25 03:51:14;;;;;;;8.20;3.50;;;;;;;10.06;74.66;101840.69;1699555;84;21011;-92
2021/08/25 03:53:41;;;;;;;5.25;3.55;;;;;;;10.10;74.63;101834.34;1729787;81;21793;-92
2021/08/25 03:56:08;;;;;;;6.28;3.45;;;;;;;10.15;74.62;101827.06;1699349;84;21022;-92
2021/08/25 03:58:35;;;;;;;7.75;3.72;;;;;;;10.21;74.58;101828.24;1729700;83;20981;-92
2021/08/25 04:01:02;;;;;;;7.30;3.80;;;;;;;10.30;74.53;101832.98;1699358;82;21029;-90
2021/08/25 04:03:29;;;;;;;7.33;3.58;;;;;;;10.41;74.59;101824.28;1729661;83;20997;-91
2021/08/25 04:05:58;;;;;;;5.40;3.65;;;;;;;10.98;75.67;101818.34;1667550;84;22562;-91
2021/08/25 04:08:27;;;;;;;5.47;3.62;;;;;;;11.86;75.70;101806.78;1729008;81;20981;-90
2021/08/25 04:10:56;;;;;;;5.95;3.80;;;;;;;12.86;75.00;101801.44;1728673;83;20996;-90
2021/08/25 04:13:21;;;;;;;7.12;3.58;;;;;;;13.70;73.92;101796.55;1729347;80;21000;-90
2021/08/25 04:15:52;;;;;;;5.17;3.30;;;;;;;14.47;72.82;101792.42;1699051;84;21082;-91
2021/08/25 04:18:21;;;;;;;5.55;3.22;;;;;;;15.03;71.16;101791.62;1729248;83;21777;-90
2021/08/25 04:20:51;;;;;;;5.08;3.02;;;;;;;14.79;69.21;101790.64;1698512;84;21476;-90
2021/08/25 04:23:20;;;;;;;5.05;3.42;;;;;;;14.36;68.51;101786.44;1689619;81;21033;-86
2021/08/25 04:25:47;;;;;;;4.25;3.17;;;;;;;13.99;68.37;101788.53;1659522;86;21033;-86
2021/08/25 04:28:17;;;;;;;4.55;3.20;;;;;;;14.09;69.50;101786.59;1659340;86;21026;-87
2021/08/25 04:30:43;;;;;;;16.65;3.65;;;;;;;15.35;70.41;101782.18;1674934;85;21788;-85
2021/08/25 04:33:11;;;;;;;7.42;3.40;;;;;;;16.78;69.78;101772.97;1636380;86;21013;-85
2021/08/25 04:35:38;;;;;;;20.68;4.30;;;;;;;18.28;68.33;101773.13;1659485;86;21483;-86
2021/08/25 04:38:05;;;;;;;20.40;4.72;;;;;;;19.65;66.84;101760.72;1659509;86;21024;-86
2021/08/25 04:40:32;;;;;;;24.67;4.30;;;;;;;20.77;64.88;101753.36;1659572;86;21069;-86
2021/08/25 04:43:02;;;;;;;58.60;8.30;;;;;;;21.63;63.09;101751.80;1659469;86;21755;-84
2021/08/25 04:45:27;;;;;;;34.20;5.05;;;;;;;22.03;61.28;101750.22;1658331;86;21044;-87
2021/08/25 04:47:57;;;;;;;17.95;3.33;;;;;;;22.33;60.04;101749.59;1659627;86;21096;-85
2021/08/25 04:50:23;;;;;;;9.03;3.25;;;;;;;22.78;59.12;101746.52;1659108;86;21045;-84
2021/08/25 04:52:59;;;;;;;4.53;3.10;;;;;;;23.61;58.14;101742.47;1659328;86;20978;-88
2021/08/25 04:55:25;;;;;;;13.08;3.35;;;;;;;24.55;57.13;101732.11;1658900;86;21785;-89
2021/08/25 04:57:51;;;;;;;11.95;3.50;;;;;;;25.46;55.73;101739.36;1659592;86;21017;-93
2021/08/25 05:00:19;;;;;;;8.18;3.80;;;;;;;26.46;54.58;101739.73;1659565;86;21004;-92
2021/08/25 05:02:46;;;;;;;5.97;3.22;;;;;;;27.29;53.09;101700.16;1659560;86;21463;-92
2021/08/25 05:05:17;;;;;;;5.85;3.40;;;;;;;28.34;51.72;101727.52;1659626;86;21044;-89
2021/08/25 05:07:46;;;;;;;4.90;3.40;;;;;;;29.17;50.39;101723.74;1615362;86;22444;-89
2021/08/25 05:10:13;;;;;;;9.30;4.15;;;;;;;29.75;48.85;101721.99;1659480;86;21497;-88
2021/08/25 05:12:40;;;;;;;11.88;3.40;;;;;;;30.13;47.35;101719.56;1659580;86;20994;-88
2021/08/25 05:15:08;;;;;;;3.75;2.72;;;;;;;30.49;46.58;101716.27;1659287;86;21138;-88
2021/08/25 05:17:35;;;;;;;12.13;3.37;;;;;;;30.57;45.35;101701.86;1714907;82;20971;-89
2021/08/25 05:20:04;;;;;;;6.20;3.10;;;;;;;30.28;44.23;101703.10;1714960;81;21731;-88
2021/08/25 05:22:31;;;;;;;6.35;3.08;;;;;;;30.01;43.63;101698.77;1714502;82;21444;-89
2021/08/25 05:24:58;;;;;;;9.18;3.05;;;;;;;29.73;43.05;101693.59;1715696;81;21022;-89
2021/08/25 05:27:25;;;;;;;5.95;3.55;;;;;;;29.06;42.25;101693.83;1696105;81;21009;-89
2021/08/25 05:29:52;;;;;;;16.70;4.20;;;;;;;27.96;41.87;101685.02;1727306;81;21011;-89
2021/08/25 05:32:19;;;;;;;18.73;3.83;;;;;;;26.74;41.79;101686.39;1716333;81;22512;-88
2021/08/25 05:34:48;;;;;;;5.37;3.15;;;;;;;25.57;42.13;101682.05;1717543;81;20986;-89
2021/08/25 05:37:14;;;;;;;8.25;3.37;;;;;;;24.58;42.62;101679.11;1717633;81;21479;-88
2021/08/25 05:39:41;;;;;;;14.30;4.17;;;;;;;23.70;42.99;101677.38;1717579;81;21450;-88
2021/08/25 05:42:08;;;;;;;11.85;2.95;;;;;;;22.93;43.69;101675.67;1732436;81;21098;-87
2021/08/25 05:44:35;;;;;;;13.13;3.15;;;;;;;22.31;44.34;101672.27;1732767;81;22886;-88
2021/08/25 05:47:02;;;;;;;6.35;2.83;;;;;;;21.79;44.93;101670.88;1732986;81;20983;-84
2021/08/25 05:49:30;;;;;;;5.12;2.70;;;;;;;21.36;45.45;101661.73;1756100;81;21034;-85
2021/08/25 05:51:57;;;;;;;7.83;2.90;;;;;;;21.02;45.89;101662.30;1733244;81;21011;-83
2021/08/25 05:54:24;;;;;;;6.15;2.90;;;;;;;20.54;46.37;101634.33;1756252;80;21460;-86
2021/08/25 05:56:51;;;;;;;12.70;2.80;;;;;;;20.34;46.69;101653.95;1732840;80;21731;-85
2021/08/25 05:59:17;;;;;;;4.42;2.60;;;;;;;20.07;47.05;101648.19;1724685;81;21017;-83
2021/08/25 06:01:45;;;;;;;6.78;2.72;;;;;;;19.92;47.49;101646.39;1707983;81;21571;-84
2021/08/25 06:04:12;;;;;;;10.68;2.67;;;;;;;19.86;47.80;101644.15;1664954;85;21958;-84
2021/08/25 06:06:38;;;;;;;5.78;2.85;;;;;;;19.79;48.03;101637.93;1688994;83;21471;-84
2021/08/25 06:09:05;;;;;;;10.63;3.12;;;;;;;19.72;48.11;101633.00;1708888;83;21921;-83
2021/08/25 06:11:36;;;;;;;4.95;2.90;;;;;;;19.69;48.35;101630.73;1725325;81;20994;-84
2021/08/25 06:14:01;;;;;;;6.47;3.00;;;;;;;19.61;48.39;101624.05;1717730;81;21001;-83
2021/08/25 06:16:28;;;;;;;12.05;3.10;;;;;;;19.48;48.58;101621.80;1733355;81;21654;-83
2021/08/25 06:18:55;;;;;;;7.17;2.85;;;;;;;19.39;48.86;101624.03;1756123;81;21011;-82
2021/08/25 06:21:21;;;;;;;7.70;3.40;;;;;;;19.34;49.00;101616.89;1756147;81;21730;-83
2021/08/25 06:23:48;;;;;;;9.20;2.95;;;;;;;19.25;49.13;101619.08;1756031;79;20975;-84
2021/08/25 06:26:15;;;;;;;19.92;3.60;;;;;;;19.21;49.22;101614.17;1694876;81;20993;-83
2021/08/25 06:28:42;;;;;;;10.20;3.00;;;;;;;19.16;49.36;101606.63;1740997;81;20964;-83
2021/08/25 06:31:09;;;;;;;7.42;2.52;;;;;;;19.13;49.38;101603.05;1755654;81;21003;-84
2021/08/25 06:33:35;;;;;;;13.35;3.02;;;;;;;19.11;49.62;101599.03;1731957;81;22580;-82
2021/08/25 06:36:04;;;;;;;15.72;3.65;;;;;;;19.11;49.72;101594.15;1703718;83;21032;-84
2021/08/25 06:38:31;;;;;;;8.15;3.30;;;;;;;19.10;49.83;101591.90;1726472;81;21003;-83
2021/08/25 06:41:01;;;;;;;11.05;3.20;;;;;;;19.06;49.94;101585.23;1757994;80;21860;-83
2021/08/25 06:43:28;;;;;;;5.37;2.98;;;;;;;19.05;50.10;101577.67;1724834;81;21466;-83
2021/08/25 06:45:55;;;;;;;5.65;3.27;;;;;;;19.01;50.14;101569.19;1716254;83;21766;-83
2021/08/25 06:48:21;;;;;;;5.25;3.65;;;;;;;18.96;50.19;101563.84;1716416;83;20984;-84
2021/08/25 06:50:48;;;;;;;12.40;4.58;;;;;;;18.91;50.27;101559.39;1722814;81;21002;-84
2021/08/25 06:53:17;;;;;;;6.53;3.05;;;;;;;18.86;50.48;101554.47;1717695;81;21523;-83
2021/08/25 06:55:44;;;;;;;6.70;3.50;;;;;;;18.86;50.54;101550.47;1721805;81;21012;-83
2021/08/25 06:58:10;;;;;;;5.67;3.27;;;;;;;18.79;50.36;101543.75;1728394;81;21743;-84
2021/08/25 07:00:37;;;;;;;3.83;3.00;;;;;;;18.74;50.28;101545.50;1728206;81;21031;-83
2021/08/25 07:03:04;;;;;;;7.90;3.30;;;;;;;18.71;50.27;101541.47;1728405;83;21089;-83
2021/08/25 07:05:30;;;;;;;4.25;3.05;;;;;;;18.70;50.29;101538.83;1698170;82;21069;-83
2021/08/25 07:07:57;;;;;;;7.35;3.12;;;;;;;18.69;50.33;101529.91;1720071;81;20990;-83
2021/08/25 07:10:24;;;;;;;14.47;4.15;;;;;;;18.63;50.38;101524.56;1717886;81;21196;-83
2021/08/25 07:12:51;;;;;;;15.68;4.40;;;;;;;18.65;50.57;101522.34;1717513;81;20952;-85
2021/08/25 07:15:19;;;;;;;9.03;3.37;;;;;;;18.69;50.62;101519.25;1683845;81;33562;-86
2021/08/25 07:17:46;;;;;;;5.75;3.17;;;;;;;18.69;50.75;101515.25;1717225;81;21191;-85
2021/08/25 07:20:14;;;;;;;4.85;3.10;;;;;;;18.68;50.59;101501.94;1724106;81;21472;-84
2021/08/25 07:22:42;;;;;;;6.20;3.08;;;;;;;18.65;50.49;101502.80;1740722;80;20999;-84
2021/08/25 07:25:12;;;;;;;7.87;4.12;;;;;;;18.64;50.49;101499.70;1721045;81;21480;-84
2021/08/25 07:27:42;;;;;;;12.68;3.77;;;;;;;18.67;50.39;101500.14;1719802;81;21003;-84
2021/08/25 07:30:13;;;;;;;7.20;3.12;;;;;;;18.66;50.46;101488.59;1726078;81;20993;-83
2021/08/25 07:32:42;;;;;;;6.97;2.98;;;;;;;18.69;50.54;101487.25;1718768;81;21057;-83
2021/08/25 07:35:10;;;;;;;32.80;6.65;;;;;;;18.72;50.29;101483.72;1716837;82;22618;-83
2021/08/25 07:37:36;;;;;;;8.18;3.40;;;;;;;18.71;50.18;101480.14;1740275;81;20984;-83
2021/08/25 07:40:05;;;;;;;102.02;15.85;;;;;;;18.69;50.08;101467.70;1717932;81;21488;-84
2021/08/25 07:42:31;;;;;;;10.85;3.80;;;;;;;18.65;49.96;101467.67;1690068;83;21027;-84
2021/08/25 07:45:00;;;;;;;6.70;3.37;;;;;;;18.68;49.98;101460.16;1708186;81;20972;-85
2021/08/25 07:47:27;;;;;;;6.03;3.60;;;;;;;18.72;50.07;101463.72;1729507;81;21752;-84
2021/08/25 07:49:55;;;;;;;7.00;3.52;;;;;;;18.80;50.05;101454.86;1716764;81;21008;-84
2021/08/25 07:52:23;;;;;;;12.90;4.72;;;;;;;18.95;50.14;101447.34;1679067;83;21027;-83
2021/08/25 07:54:50;;;;;;;4.67;3.08;;;;;;;19.06;49.76;101443.36;1679279;83;21048;-84
2021/08/25 07:57:16;;;;;;;5.42;3.30;;;;;;;19.11;49.55;101436.25;1726799;81;21046;-84
2021/08/25 07:59:43;;;;;;;3.50;2.83;;;;;;;19.19;49.47;101434.47;1719398;81;21742;-83
2021/08/25 08:02:10;;;;;;;5.87;3.58;;;;;;;19.26;49.34;101430.45;1728042;82;21425;-83
2021/08/25 08:04:36;;;;;;;6.72;3.30;;;;;;;19.38;49.30;101429.13;1726657;82;21011;-84
2021/08/25 08:07:03;;;;;;;6.05;3.37;;;;;;;19.54;49.04;101421.56;1718739;81;21152;-84
2021/08/25 08:09:32;;;;;;;9.98;3.67;;;;;;;19.72;48.75;101425.08;1666544;84;21593;-84
2021/08/25 08:11:59;;;;;;;5.42;3.12;;;;;;;19.94;48.75;101424.63;1722457;81;21887;-83
2021/08/25 08:14:26;;;;;;;12.15;3.42;;;;;;;20.21;48.61;101424.96;1723092;83;21481;-84
2021/08/25 08:16:55;;;;;;;7.00;3.95;;;;;;;20.45;48.53;101419.95;1733136;81;21611;-84
2021/08/25 08:19:33;;;;;;;4.97;3.50;;;;;;;20.66;48.11;101418.97;1720947;81;21053;-84
2021/08/25 08:22:00;;;;;;;4.90;3.35;;;;;;;20.89;47.98;101413.91;1723027;81;21004;-84
2021/08/25 08:24:28;;;;;;;5.67;3.35;;;;;;;21.07;47.58;101411.10;1723427;81;21784;-84
2021/08/25 08:26:55;;;;;;;7.15;3.15;;;;;;;21.16;47.05;101410.16;1716115;81;21000;-84
2021/08/25 08:29:22;;;;;;;7.12;3.40;;;;;;;21.27;46.80;101401.58;1704134;83;20981;-84
2021/08/25 08:31:48;;;;;;;15.30;3.67;;;;;;;21.41;46.56;101392.53;1718344;83;21002;-84
2021/08/25 08:34:15;;;;;;;11.78;3.50;;;;;;;21.60;46.36;101390.58;1722728;83;21046;-84
2021/08/25 08:36:42;;;;;;;8.03;3.60;;;;;;;21.81;46.17;101384.09;1717978;83;22579;-84
2021/08/25 08:39:08;;;;;;;7.03;4.05;;;;;;;21.97;45.91;101374.09;1705198;83;21007;-84
2021/08/25 08:41:35;;;;;;;6.92;3.40;;;;;;;22.08;45.53;101374.38;1731399;80;20998;-84
2021/08/25 08:44:02;;;;;;;4.28;2.77;;;;;;;22.22;45.26;101366.15;1727132;81;21056;-84
2021/08/25 08:46:29;;;;;;;6.47;3.45;;;;;;;22.27;45.00;101364.80;1718161;81;21044;-84
2021/08/25 08:48:56;;;;;;;16.27;3.42;;;;;;;22.30;44.79;101356.72;1692267;83;22427;-84
2021/08/25 08:52:21;;;;;;;10.85;3.83;;;;;;;22.25;44.53;101356.77;1679768;84;21012;-83
2021/08/25 08:54:50;;;;;;;13.78;3.40;;;;;;;22.16;44.53;101350.16;1618051;87;21079;-83
2021/08/25 08:57:18;;;;;;;12.00;3.40;;;;;;;22.10;44.30;101340.86;1603890;87;21187;-84
2021/08/25 08:59:45;;;;;;;11.90;3.90;;;;;;;21.94;44.08;101338.81;1623301;87;21680;-84
2021/08/25 09:02:11;;;;;;;19.07;4.00;;;;;;;21.86;44.26;101336.23;1604016;88;22594;-83
2021/08/25 09:04:46;;;;;;;7.97;3.60;;;;;;;21.86;44.27;101325.97;1607261;87;21056;-84
2021/08/25 09:07:19;;;;;;;7.08;3.05;;;;;;;21.95;44.10;101317.81;1648140;84;21053;-84
2021/08/25 09:10:00;;;;;;;6.00;3.22;;;;;;;22.06;44.25;101303.81;1628652;87;21541;-84
2021/08/25 09:12:27;;;;;;;6.12;3.72;;;;;;;22.13;44.05;101306.85;1627350;88;21134;-84
2021/08/25 09:14:54;;;;;;;7.70;3.58;;;;;;;22.18;44.00;101312.13;1644061;86;21785;-84
2021/08/25 09:17:30;;;;;;;10.30;3.58;;;;;;;22.26;43.71;101308.94;1630577;86;21645;-84
2021/08/25 09:20:12;;;;;;;10.43;4.37;;;;;;;22.28;43.76;101307.55;1631475;86;21054;-84
2021/08/25 09:22:39;;;;;;;5.33;2.90;;;;;;;22.45;43.69;101301.50;1631403;86;21212;-83
2021/08/25 09:25:06;;;;;;;21.48;12.43;;;;;;;22.75;43.62;101294.30;1637580;86;21150;-83
2021/08/25 09:27:33;;;;;;;10.15;4.58;;;;;;;23.36;43.08;101270.87;1637022;86;21761;-84
2021/08/25 09:30:04;;;;;;;8.83;3.90;;;;;;;23.60;42.63;101270.36;1633447;83;20999;-84
2021/08/25 09:32:29;;;;;;;17.60;4.33;;;;;;;23.60;42.63;101270.36;1719626;81;21025;-84
2021/08/25 09:35:00;;;;;;;9.68;4.00;;;;;;;23.71;42.45;101258.05;1669672;83;21507;-84
2021/08/25 09:37:28;;;;;;;10.08;3.92;;;;;;;23.98;42.06;101262.42;1724327;83;21108;-84
2021/08/25 09:39:58;;;;;;;6.28;3.42;;;;;;;24.04;41.56;101259.15;1693833;81;21888;-84
2021/08/25 09:42:25;;;;;;;10.98;3.52;;;;;;;24.15;41.35;101254.84;1730519;81;20991;-84
2021/08/25 09:45:06;;;;;;;9.93;3.00;;;;;;;24.14;41.08;101251.75;1757885;81;21011;-84
2021/08/25 09:47:49;;;;;;;5.92;3.45;;;;;;;24.11;40.94;101249.11;1757632;80;21454;-84
2021/08/25 09:50:19;;;;;;;20.85;4.22;;;;;;;24.00;40.66;101248.01;1683788;83;21006;-84
2021/08/25 09:52:48;;;;;;;10.72;3.47;;;;;;;23.84;40.51;101247.48;1684348;83;21744;-84
2021/08/25 09:55:15;;;;;;;9.43;3.70;;;;;;;23.71;40.52;101240.58;1684179;83;21045;-84
2021/08/25 09:57:43;;;;;;;5.55;3.50;;;;;;;23.61;40.64;101241.68;1684026;83;21003;-84
2021/08/25 10:00:12;;;;;;;4.53;3.40;;;;;;;23.54;40.66;101238.26;1684145;83;21017;-84
2021/08/25 10:02:43;;;;;;;8.10;3.25;;;;;;;23.48;40.56;101223.58;1662805;84;21072;-85
2021/08/25 10:05:09;;;;;;;9.15;3.65;;;;;;;23.36;40.71;101212.64;1689174;82;21759;-84
2021/08/25 10:07:36;;;;;;;10.15;3.42;;;;;;;23.28;40.52;101208.77;1714974;82;20982;-85
2021/08/25 10:10:06;;;;;;;12.47;4.00;;;;;;;22.91;40.38;101179.92;1715043;83;21018;-83
2021/08/25 10:12:32;;;;;;;9.05;3.58;;;;;;;22.91;40.38;101179.92;1693286;83;21010;-84
2021/08/25 10:14:59;;;;;;;8.00;4.25;;;;;;;22.80;40.51;101195.34;1715090;81;20986;-84
2021/08/25 10:17:40;;;;;;;25.48;5.10;;;;;;;22.55;40.58;101181.51;1715154;82;21841;-84
2021/08/25 10:20:33;;;;;;;8.98;5.22;;;;;;;22.26;40.81;101176.63;1693188;82;20954;-84
2021/08/25 10:22:59;;;;;;;10.15;3.95;;;;;;;21.99;41.07;101165.41;1713107;81;20980;-84
2021/08/25 10:25:27;;;;;;;8.05;3.80;;;;;;;21.79;41.30;101171.10;1718040;81;21496;-84
2021/08/25 10:28:06;;;;;;;4.53;3.50;;;;;;;21.67;41.37;101159.21;1715497;83;21082;-84
2021/08/25 10:30:51;;;;;;;9.18;3.45;;;;;;;21.53;41.53;101154.94;1715697;82;21746;-84
2021/08/25 10:33:18;;;;;;;16.85;4.55;;;;;;;21.41;41.75;101145.68;1715635;82;21440;-84
2021/08/25 10:35:45;;;;;;;11.30;4.42;;;;;;;21.29;41.97;101145.41;1715587;82;21520;-84
2021/08/25 10:38:27;;;;;;;9.33;4.15;;;;;;;21.16;41.80;101137.98;1722492;80;20969;-84
2021/08/25 10:41:01;;;;;;;8.40;4.22;;;;;;;21.04;41.98;101140.83;1723544;81;21536;-84
2021/08/25 10:43:34;;;;;;;7.35;3.98;;;;;;;20.95;42.09;101139.13;1690385;83;21523;-85
2021/08/25 10:46:01;;;;;;;11.48;4.62;;;;;;;20.90;42.09;101137.41;1719472;81;21037;-84
2021/08/25 10:48:39;;;;;;;6.22;4.62;;;;;;;20.85;42.30;101131.22;1716581;81;21381;-84
2021/08/25 10:51:34;;;;;;;14.83;4.60;;;;;;;20.82;42.42;101125.92;1717516;83;21125;-84
2021/08/25 10:54:04;;;;;;;12.58;4.83;;;;;;;20.76;42.48;101117.52;1718864;81;21072;-84
2021/08/25 10:56:35;;;;;;;11.85;4.37;;;;;;;20.68;42.49;101109.55;1710563;81;21681;-83
2021/08/25 10:59:05;;;;;;;18.87;5.08;;;;;;;20.60;42.54;101106.08;1699829;80;21068;-84
2021/08/25 11:01:39;;;;;;;9.05;4.28;;;;;;;20.53;42.40;101096.31;1705070;81;21008;-84
2021/08/25 11:04:18;;;;;;;7.78;4.05;;;;;;;20.41;42.36;101094.66;1734364;81;21148;-84
2021/08/25 11:06:54;;;;;;;10.28;4.28;;;;;;;20.33;42.39;101097.87;1698608;81;21013;-89
2021/08/25 11:09:27;;;;;;;13.55;5.10;;;;;;;20.32;42.55;101101.43;1629269;86;21762;-85
2021/08/25 11:12:02;;;;;;;13.05;4.97;;;;;;;20.29;42.59;101086.32;1665788;84;21039;-85
2021/08/25 11:14:49;;;;;;;20.30;5.78;;;;;;;20.28;42.63;101070.30;1636203;85;29004;-86
2021/08/25 11:17:25;;;;;;;17.73;4.78;;;;;;;20.17;42.52;101064.58;1655317;84;21082;-85
2021/08/25 11:20:00;;;;;;;8.33;4.08;;;;;;;20.06;42.66;101069.60;1655698;86;21046;-85
2021/08/25 11:22:38;;;;;;;8.68;4.35;;;;;;;19.96;42.67;101064.80;1662173;85;21625;-85
2021/08/25 11:25:14;;;;;;;9.15;4.80;;;;;;;19.87;42.76;101059.07;1652941;85;21139;-85
2021/08/25 11:27:47;;;;;;;12.82;4.80;;;;;;;19.78;42.87;101054.71;1678966;85;21052;-85
2021/08/25 11:30:27;;;;;;;17.82;5.58;;;;;;;19.68;43.02;101042.28;1663393;84;21124;-86
2021/08/25 11:33:07;;;;;;;15.53;4.85;;;;;;;19.60;43.12;101038.34;1669993;85;21068;-85